createdAt,value
2023-03-15T00:00:53.867Z,96150.28
2023-03-15T00:03:20.447Z,96150.97
2023-03-15T00:05:49.048Z,96154.75
2023-03-15T00:08:15.858Z,96157.19
2023-03-15T00:10:43.176Z,96156.69
2023-03-15T00:13:10.737Z,96156.38
2023-03-15T00:15:45.603Z,96165.16
2023-03-15T00:18:13.065Z,96169.97
2023-03-15T00:20:39.516Z,96168.03
2023-03-15T00:23:06.072Z,96167.19
2023-03-15T00:25:33.186Z,96167.47
2023-03-15T00:27:59.619Z,96158.31
2023-03-15T00:30:27.384Z,96147.78
2023-03-15T00:32:54.007Z,96152.72
2023-03-15T00:35:21.071Z,96147.28
2023-03-15T00:37:47.943Z,96162.66
2023-03-15T00:40:14.599Z,96176.59
2023-03-15T00:42:42.124Z,96190.22
2023-03-15T00:45:08.954Z,96185.16
2023-03-15T00:47:35.440Z,96189.09
2023-03-15T00:50:01.920Z,96201.19
2023-03-15T00:52:35.854Z,96203.81
2023-03-15T00:55:04.853Z,96212.41
2023-03-15T00:57:34.546Z,96214.97
2023-03-15T01:00:08.738Z,96215.53
2023-03-15T01:02:37.285Z,96209.25
2023-03-15T01:05:08.597Z,96212.25
2023-03-15T01:07:35.683Z,96209.03
2023-03-15T01:10:05.433Z,96216.75
2023-03-15T01:12:33.442Z,96208.53
2023-03-15T01:15:01.636Z,96210.84
2023-03-15T01:17:28.348Z,96213.72
2023-03-15T01:19:54.876Z,96214.81
2023-03-15T01:22:22.422Z,96212.47
2023-03-15T01:24:48.884Z,96216.31
2023-03-15T01:27:15.333Z,96219.09
2023-03-15T01:29:47.669Z,96209.00
2023-03-15T01:32:14.432Z,96219.66
2023-03-15T01:34:41.080Z,96229.22
2023-03-15T01:37:07.656Z,96221.28
2023-03-15T01:39:35.117Z,96227.16
2023-03-15T01:42:02.351Z,96220.44
2023-03-15T01:44:50.062Z,96230.13
2023-03-15T01:47:16.635Z,96236.03
2023-03-15T01:49:45.363Z,96233.03
2023-03-15T01:52:17.741Z,96251.63
2023-03-15T01:54:59.545Z,96264.72
2023-03-15T01:57:32.566Z,96268.00
2023-03-15T02:00:10.614Z,96272.63
2023-03-15T02:02:46.886Z,96283.81
2023-03-15T02:05:19.489Z,96277.81
2023-03-15T02:07:49.943Z,96281.91
2023-03-15T02:10:23.216Z,96284.63
2023-03-15T02:12:53.021Z,96289.16
2023-03-15T02:15:19.678Z,96288.44
2023-03-15T02:17:48.236Z,96293.25
2023-03-15T02:20:46.087Z,96295.69
2023-03-15T02:23:18.835Z,96301.84
2023-03-15T02:26:13.595Z,96303.09
2023-03-15T02:28:40.936Z,96300.63
2023-03-15T02:31:07.494Z,96297.06
2023-03-15T02:33:41.771Z,96313.72
2023-03-15T02:36:35.489Z,96322.59
2023-03-15T02:39:12.925Z,96325.88
2023-03-15T02:41:42.470Z,96328.19
2023-03-15T02:44:14.031Z,96326.28
2023-03-15T02:46:41.988Z,96322.03
2023-03-15T02:49:08.792Z,96309.91
2023-03-15T02:51:35.340Z,96328.19
2023-03-15T02:54:02.819Z,96325.47
2023-03-15T02:56:32.093Z,96330.38
2023-03-15T02:58:58.514Z,96327.66
2023-03-15T03:01:25.134Z,96335.72
2023-03-15T03:03:51.623Z,96342.00
2023-03-15T03:06:18.556Z,96337.59
2023-03-15T03:08:47.262Z,96357.00
2023-03-15T03:11:15.572Z,96359.88
2023-03-15T03:13:44.217Z,96357.81
2023-03-15T03:16:11.263Z,96366.00
2023-03-15T03:18:38.685Z,96366.81
2023-03-15T03:21:07.337Z,96375.72
2023-03-15T03:23:35.988Z,96394.69
2023-03-15T03:26:04.218Z,96403.41
2023-03-15T03:28:33.298Z,96401.91
2023-03-15T03:30:59.823Z,96400.41
2023-03-15T03:33:26.406Z,96404.66
2023-03-15T03:35:54.179Z,96406.97
2023-03-15T03:38:20.965Z,96415.59
2023-03-15T03:40:47.540Z,96420.22
2023-03-15T03:43:14.016Z,96419.09
2023-03-15T03:45:40.512Z,96431.81
2023-03-15T03:48:08.968Z,96438.38
2023-03-15T03:50:35.524Z,96444.09
2023-03-15T03:53:01.947Z,96452.69
2023-03-15T03:55:28.376Z,96450.41
2023-03-15T03:57:54.857Z,96450.22
2023-03-15T04:00:21.647Z,96456.38
2023-03-15T04:02:48.209Z,96451.75
2023-03-15T04:05:14.822Z,96455.56
2023-03-15T04:07:41.534Z,96477.91
2023-03-15T04:10:09.129Z,96482.28
2023-03-15T04:12:35.643Z,96477.09
2023-03-15T04:15:02.191Z,96485.22
2023-03-15T04:17:28.657Z,96490.97
2023-03-15T04:19:57.177Z,96494.38
2023-03-15T04:22:23.659Z,96502.56
2023-03-15T04:24:50.704Z,96503.06
2023-03-15T04:27:23.021Z,96507.63
2023-03-15T04:29:49.482Z,96507.81
2023-03-15T04:32:18.018Z,96515.09
2023-03-15T04:34:45.578Z,96522.50
2023-03-15T04:37:12.054Z,96528.97
2023-03-15T04:39:39.141Z,96532.03
2023-03-15T04:42:05.871Z,96539.91
2023-03-15T04:44:42.529Z,96541.78
2023-03-15T04:47:09.688Z,96543.56
2023-03-15T04:49:43.977Z,96551.00
2023-03-15T04:52:10.468Z,96556.56
2023-03-15T04:54:39.319Z,96552.56
2023-03-15T04:57:05.949Z,96563.53
2023-03-15T04:59:32.497Z,96564.09
2023-03-15T05:01:58.988Z,96573.88
2023-03-15T05:04:25.489Z,96575.09
2023-03-15T05:06:51.898Z,96579.19
2023-03-15T05:09:19.232Z,96582.09
2023-03-15T05:11:46.502Z,96579.31
2023-03-15T05:14:13.930Z,96586.78
2023-03-15T05:16:40.627Z,96593.59
2023-03-15T05:19:14.294Z,96582.13
2023-03-15T05:21:40.752Z,96599.59
2023-03-15T05:24:07.302Z,96606.78
2023-03-15T05:26:34.935Z,96609.38
2023-03-15T05:29:01.364Z,96611.13
2023-03-15T05:31:28.292Z,96618.34
2023-03-15T05:33:54.745Z,96623.63
2023-03-15T05:36:21.760Z,96628.81
2023-03-15T05:38:48.353Z,96642.38
2023-03-15T05:41:17.961Z,96638.59
2023-03-15T05:43:44.486Z,96647.56
2023-03-15T05:46:10.953Z,96640.75
2023-03-15T05:48:37.440Z,96653.88
2023-03-15T05:51:07.174Z,96660.97
2023-03-15T05:53:34.102Z,96664.84
2023-03-15T05:56:09.093Z,96668.13
2023-03-15T05:58:35.680Z,96669.16
2023-03-15T06:01:04.431Z,96663.03
2023-03-15T06:03:31.759Z,96674.66
2023-03-15T06:05:59.333Z,96680.22
2023-03-15T06:08:25.744Z,96682.19
2023-03-15T06:10:52.209Z,96678.53
2023-03-15T06:13:18.943Z,96691.31
2023-03-15T06:15:47.228Z,96695.09
2023-03-15T06:18:17.434Z,96695.31
2023-03-15T06:20:44.403Z,96708.34
2023-03-15T06:23:11.114Z,96708.47
2023-03-15T06:25:47.739Z,96697.78
2023-03-15T06:28:14.288Z,96695.81
2023-03-15T06:30:42.289Z,96707.28
2023-03-15T06:33:08.808Z,96698.56
2023-03-15T06:35:35.396Z,96709.78
2023-03-15T06:38:05.038Z,96711.25
2023-03-15T06:40:31.724Z,96721.53
2023-03-15T06:42:58.165Z,96720.94
2023-03-15T06:45:48.603Z,96715.47
2023-03-15T06:48:15.300Z,96720.47
2023-03-15T06:50:47.256Z,96723.44
2023-03-15T06:53:14.712Z,96728.13
2023-03-15T06:55:41.165Z,96725.06
2023-03-15T06:58:08.006Z,96726.44
2023-03-15T07:00:36.129Z,96726.19
2023-03-15T07:03:02.697Z,96723.72
2023-03-15T07:05:29.563Z,96735.34
2023-03-15T07:07:56.194Z,96746.03
2023-03-15T07:10:24.014Z,96754.97
2023-03-15T07:12:50.437Z,96760.84
2023-03-15T07:15:17.586Z,96754.22
2023-03-15T07:17:44.213Z,96754.00
2023-03-15T07:20:11.426Z,96732.03
2023-03-15T07:22:38.637Z,96752.34
2023-03-15T07:25:07.410Z,96745.09
2023-03-15T07:27:33.953Z,96742.69
2023-03-15T07:30:02.774Z,96742.50
2023-03-15T07:32:30.921Z,96746.94
2023-03-15T07:35:00.508Z,96736.09
2023-03-15T07:37:29.258Z,96741.41
2023-03-15T07:40:04.784Z,96745.81
2023-03-15T07:42:31.229Z,96750.19
2023-03-15T07:44:57.741Z,96764.06
2023-03-15T07:47:24.157Z,96765.81
2023-03-15T07:49:50.787Z,96778.88
2023-03-15T07:52:17.521Z,96775.47
2023-03-15T07:54:43.935Z,96786.13
2023-03-15T07:57:10.697Z,96774.47
2023-03-15T07:59:37.166Z,96780.13
2023-03-15T08:02:03.805Z,96775.19
2023-03-15T08:04:30.529Z,96758.88
2023-03-15T08:06:57.066Z,96770.63
2023-03-15T08:09:25.007Z,96771.50
2023-03-15T08:11:51.538Z,96763.06
2023-03-15T08:14:18.474Z,96764.13
2023-03-15T08:16:44.953Z,96757.09
2023-03-15T08:19:11.464Z,96750.44
2023-03-15T08:21:38.050Z,96748.41
2023-03-15T08:24:05.884Z,96760.53
2023-03-15T08:26:32.334Z,96757.91
2023-03-15T08:28:58.741Z,96769.66
2023-03-15T08:31:25.353Z,96764.94
2023-03-15T08:33:51.815Z,96782.16
2023-03-15T08:36:18.310Z,96778.72
2023-03-15T08:38:44.940Z,96783.00
2023-03-15T08:41:11.367Z,96799.44
2023-03-15T08:43:38.116Z,96803.56
2023-03-15T08:46:15.577Z,96795.19
2023-03-15T08:48:42.096Z,96786.72
2023-03-15T08:51:09.072Z,96791.66
2023-03-15T08:53:35.692Z,96801.44
2023-03-15T08:56:02.131Z,96786.31
2023-03-15T08:58:30.728Z,96804.41
2023-03-15T09:00:57.458Z,96800.06
2023-03-15T09:03:27.345Z,96802.31
2023-03-15T09:05:57.893Z,96809.50
2023-03-15T09:08:25.549Z,96809.47
2023-03-15T09:10:56.263Z,96805.28
2023-03-15T09:13:23.664Z,96811.13
2023-03-15T09:15:57.014Z,96818.72
2023-03-15T09:18:24.640Z,96827.75
2023-03-15T09:20:51.191Z,96818.47
2023-03-15T09:23:17.662Z,96822.47
2023-03-15T09:25:44.139Z,96823.97
2023-03-15T09:28:11.519Z,96827.81
2023-03-15T09:30:39.527Z,96828.28
2023-03-15T09:33:06.092Z,96820.19
2023-03-15T09:35:32.596Z,96826.47
2023-03-15T09:37:59.087Z,96825.44
2023-03-15T09:40:30.747Z,96816.63
2023-03-15T09:43:06.115Z,96830.94
2023-03-15T09:45:41.576Z,96819.38
2023-03-15T09:48:23.955Z,96825.72
2023-03-15T09:51:01.212Z,96842.03
2023-03-15T09:53:39.549Z,96840.94
2023-03-15T09:56:20.199Z,96848.06
2023-03-15T09:58:48.242Z,96841.84
2023-03-15T10:01:17.230Z,96832.03
2023-03-15T10:03:46.643Z,96842.19
2023-03-15T10:06:16.828Z,96836.59
2023-03-15T10:08:43.324Z,96840.59
2023-03-15T10:11:31.740Z,96835.06
2023-03-15T10:14:13.142Z,96824.84
2023-03-15T10:16:44.413Z,96834.41
2023-03-15T10:19:36.085Z,96825.81
2023-03-15T10:22:27.620Z,96826.19
2023-03-15T10:25:05.132Z,96825.34
2023-03-15T10:27:42.425Z,96828.00
2023-03-15T10:30:20.042Z,96820.88
2023-03-15T10:33:14.077Z,96825.63
2023-03-15T10:35:42.802Z,96818.44
2023-03-15T10:38:23.467Z,96824.03
2023-03-15T10:40:55.854Z,96826.56
2023-03-15T10:43:23.899Z,96820.34
2023-03-15T10:46:01.721Z,96812.50
2023-03-15T10:48:31.197Z,96817.25
2023-03-15T10:51:04.593Z,96822.06
2023-03-15T10:53:31.134Z,96820.34
2023-03-15T10:56:23.622Z,96816.59
2023-03-15T10:59:11.010Z,96811.69
2023-03-15T11:01:38.353Z,96804.09
2023-03-15T11:04:27.380Z,96794.28
2023-03-15T11:06:53.760Z,96795.59
2023-03-15T11:09:23.534Z,96799.72
2023-03-15T11:12:05.093Z,96798.50
2023-03-15T11:14:39.403Z,96804.75
2023-03-15T11:17:09.268Z,96811.59
2023-03-15T11:19:42.452Z,96826.53
2023-03-15T11:22:13.807Z,96828.31
2023-03-15T11:24:40.717Z,96852.56
2023-03-15T11:27:17.756Z,96855.13
2023-03-15T11:29:48.712Z,96863.69
2023-03-15T11:32:24.380Z,96857.81
2023-03-15T11:35:07.696Z,96846.75
2023-03-15T11:37:51.181Z,96863.00
2023-03-15T11:40:23.538Z,96856.13
2023-03-15T11:43:08.812Z,96857.13
2023-03-15T11:46:00.205Z,96853.63
2023-03-15T11:48:31.535Z,96855.09
2023-03-15T11:50:59.452Z,96851.28
2023-03-15T11:53:34.192Z,96850.44
2023-03-15T11:56:21.942Z,96859.75
2023-03-15T11:59:06.403Z,96853.56
2023-03-15T12:01:34.741Z,96851.06
2023-03-15T12:04:25.732Z,96851.88
2023-03-15T12:06:54.243Z,96847.47
2023-03-15T12:09:41.502Z,96850.72
2023-03-15T12:12:27.202Z,96843.94
2023-03-15T12:15:08.409Z,96845.31
2023-03-15T12:17:37.341Z,96840.13
2023-03-15T12:20:13.113Z,96837.63
2023-03-15T12:22:49.643Z,96836.38
2023-03-15T12:25:21.022Z,96833.66
2023-03-15T12:27:50.908Z,96838.34
2023-03-15T12:30:52.805Z,96839.66
2023-03-15T12:33:21.333Z,96838.56
2023-03-15T12:35:49.726Z,96836.06
2023-03-15T12:38:23.496Z,96834.94
2023-03-15T12:40:54.945Z,96843.44
2023-03-15T12:43:43.286Z,96838.94
2023-03-15T12:46:41.297Z,96834.53
2023-03-15T12:49:29.654Z,96829.69
2023-03-15T12:51:59.708Z,96834.97
2023-03-15T12:54:34.796Z,96838.66
2023-03-15T12:57:04.442Z,96838.91
2023-03-15T12:59:41.264Z,96835.16
2023-03-15T13:02:32.463Z,96841.34
2023-03-15T13:05:19.836Z,96835.47
2023-03-15T13:08:15.526Z,96842.59
2023-03-15T13:10:51.786Z,96845.34
2023-03-15T13:13:28.903Z,96845.88
2023-03-15T13:16:06.406Z,96846.59
2023-03-15T13:18:41.974Z,96849.06
2023-03-15T13:21:31.570Z,96850.81
2023-03-15T13:23:59.653Z,96858.22
2023-03-15T13:26:59.317Z,96852.38
2023-03-15T13:29:32.316Z,96850.78
2023-03-15T13:32:14.133Z,96862.00
2023-03-15T13:34:42.232Z,96855.97
2023-03-15T13:37:18.052Z,96855.97
2023-03-15T13:40:06.093Z,96862.44
2023-03-15T13:42:32.757Z,96869.38
2023-03-15T13:45:17.753Z,96867.22
2023-03-15T13:47:45.873Z,96868.56
2023-03-15T13:50:19.315Z,96873.28
2023-03-15T13:52:47.254Z,96864.16
2023-03-15T13:55:22.532Z,96876.22
2023-03-15T13:58:00.076Z,96863.31
2023-03-15T14:00:33.848Z,96868.25
2023-03-15T14:03:03.471Z,96868.19
2023-03-15T14:05:33.555Z,96873.84
2023-03-15T14:08:04.037Z,96867.91
2023-03-15T14:10:34.309Z,96870.25
2023-03-15T14:13:46.239Z,96881.25
2023-03-15T14:16:16.484Z,96876.41
2023-03-15T14:18:45.221Z,96876.56
2023-03-15T14:21:31.109Z,96870.81
2023-03-15T14:24:06.370Z,96877.28
2023-03-15T14:26:41.011Z,96874.13
2023-03-15T14:29:32.726Z,96869.91
2023-03-15T14:32:02.492Z,96872.06
2023-03-15T14:34:46.557Z,96867.31
2023-03-15T14:37:37.890Z,96868.34
2023-03-15T14:40:23.037Z,96868.94
2023-03-15T14:42:50.895Z,96867.06
2023-03-15T14:45:19.298Z,96863.38
2023-03-15T14:47:57.264Z,96872.47
2023-03-15T14:50:35.454Z,96866.56
2023-03-15T14:53:02.951Z,96863.81
2023-03-15T14:55:34.851Z,96862.63
2023-03-15T14:58:02.206Z,96872.88
2023-03-15T15:00:30.217Z,96860.38
2023-03-15T15:02:58.811Z,96862.56
2023-03-15T15:05:43.669Z,96867.84
2023-03-15T15:08:15.566Z,96868.22
2023-03-15T15:10:44.094Z,96867.66
2023-03-15T15:13:18.554Z,96870.13
2023-03-15T15:15:55.076Z,96870.63
2023-03-15T15:18:28.594Z,96865.16
2023-03-15T15:20:57.366Z,96874.25
2023-03-15T15:23:47.455Z,96867.09
2023-03-15T15:26:23.629Z,96868.47
2023-03-15T15:28:50.153Z,96864.50
2023-03-15T15:31:22.795Z,96868.09
2023-03-15T15:33:50.704Z,96858.31
2023-03-15T15:36:31.202Z,96870.50
2023-03-15T15:39:11.197Z,96868.38
2023-03-15T15:41:37.622Z,96867.63
2023-03-15T15:44:04.163Z,96885.81
2023-03-15T15:46:30.761Z,96869.97
2023-03-15T15:48:58.819Z,96888.78
2023-03-15T15:51:27.847Z,96889.38
2023-03-15T15:53:58.285Z,96892.25
2023-03-15T15:56:45.770Z,96898.47
2023-03-15T15:59:15.129Z,96906.53
2023-03-15T16:01:58.974Z,96913.22
2023-03-15T16:04:26.576Z,96915.13
2023-03-15T16:06:59.122Z,96914.06
2023-03-15T16:09:28.257Z,96926.34
2023-03-15T16:11:56.979Z,96917.53
2023-03-15T16:14:23.449Z,96924.94
2023-03-15T16:16:50.069Z,96930.41
2023-03-15T16:19:17.084Z,96930.72
2023-03-15T16:21:47.766Z,96932.63
2023-03-15T16:24:21.691Z,96952.00
2023-03-15T16:26:49.676Z,96951.97
2023-03-15T16:29:35.292Z,96966.94
2023-03-15T16:32:15.932Z,96948.19
2023-03-15T16:34:47.107Z,96960.81
2023-03-15T16:37:16.150Z,96962.38
2023-03-15T16:39:55.635Z,96960.06
2023-03-15T16:42:24.366Z,96965.16
2023-03-15T16:44:53.793Z,96971.25
2023-03-15T16:47:20.624Z,96974.31
2023-03-15T16:49:47.127Z,96981.31
2023-03-15T16:52:16.038Z,96978.66
2023-03-15T16:54:43.988Z,96986.91
2023-03-15T16:57:17.086Z,96990.97
2023-03-15T16:59:43.632Z,96985.44
2023-03-15T17:02:17.246Z,96994.31
2023-03-15T17:04:44.037Z,96995.94
2023-03-15T17:07:11.538Z,97002.81
2023-03-15T17:09:37.992Z,97005.19
2023-03-15T17:12:04.650Z,97005.06
2023-03-15T17:14:34.969Z,97019.09
2023-03-15T17:17:01.413Z,97015.56
2023-03-15T17:19:28.848Z,97025.00
2023-03-15T17:21:56.903Z,97041.03
2023-03-15T17:24:23.507Z,97046.69
2023-03-15T17:26:49.956Z,97045.41
2023-03-15T17:29:16.779Z,97052.84
2023-03-15T17:31:44.559Z,97056.13
2023-03-15T17:34:11.118Z,97058.97
2023-03-15T17:36:37.763Z,97068.63
2023-03-15T17:39:06.765Z,97064.25
2023-03-15T17:41:45.224Z,97071.44
2023-03-15T17:44:11.861Z,97073.09
2023-03-15T17:46:38.377Z,97072.41
2023-03-15T17:49:10.047Z,97086.75
2023-03-15T17:51:37.688Z,97087.81
2023-03-15T17:54:18.278Z,97095.47
2023-03-15T17:56:44.828Z,97095.94
2023-03-15T17:59:17.765Z,97097.94
2023-03-15T18:01:48.809Z,97086.38
2023-03-15T18:04:28.217Z,97096.84
2023-03-15T18:06:55.324Z,97096.38
2023-03-15T18:09:24.120Z,97090.59
2023-03-15T18:11:50.936Z,97080.03
2023-03-15T18:14:18.870Z,97070.38
2023-03-15T18:16:45.536Z,97073.75
2023-03-15T18:19:12.062Z,97077.59
2023-03-15T18:21:39.677Z,97092.56
2023-03-15T18:24:06.447Z,97096.84
2023-03-15T18:26:33.375Z,97096.28
2023-03-15T18:29:00.977Z,97094.84
2023-03-15T18:31:38.335Z,97089.41
2023-03-15T18:34:06.657Z,97088.13
2023-03-15T18:36:33.252Z,97101.50
2023-03-15T18:39:01.793Z,97103.97
2023-03-15T18:41:28.279Z,97106.53
2023-03-15T18:44:00.934Z,97107.69
2023-03-15T18:46:27.652Z,97104.75
2023-03-15T18:48:54.221Z,97111.50
2023-03-15T18:51:22.976Z,97109.66
2023-03-15T18:53:49.672Z,97104.84
2023-03-15T18:56:19.412Z,97106.53
2023-03-15T18:59:03.594Z,97114.28
2023-03-15T19:01:30.157Z,97110.97
2023-03-15T19:03:56.814Z,97116.38
2023-03-15T19:06:26.188Z,97120.97
2023-03-15T19:08:54.343Z,97132.97
2023-03-15T19:11:21.929Z,97126.22
2023-03-15T19:13:51.000Z,97140.13
2023-03-15T19:16:23.187Z,97138.31
2023-03-15T19:18:55.312Z,97141.66
2023-03-15T19:21:21.867Z,97140.44
2023-03-15T19:23:48.337Z,97143.31
2023-03-15T19:26:15.919Z,97133.34
2023-03-15T19:28:52.544Z,97136.28
2023-03-15T19:31:19.074Z,97147.34
2023-03-15T19:33:45.564Z,97152.50
2023-03-15T19:36:14.319Z,97162.59
2023-03-15T19:38:51.902Z,97157.41
2023-03-15T19:41:44.475Z,97162.19
2023-03-15T19:44:11.398Z,97160.94
2023-03-15T19:46:37.917Z,97165.53
2023-03-15T19:49:04.413Z,97169.75
2023-03-15T19:51:41.466Z,97167.50
2023-03-15T19:54:08.084Z,97170.59
2023-03-15T19:56:41.896Z,97175.66
2023-03-15T19:59:08.664Z,97182.59
2023-03-15T20:01:43.127Z,97177.63
2023-03-15T20:04:09.704Z,97191.47
2023-03-15T20:06:36.401Z,97180.78
2023-03-15T20:09:11.254Z,97190.81
2023-03-15T20:11:37.773Z,97194.06
2023-03-15T20:14:04.668Z,97197.06
2023-03-15T20:16:31.283Z,97192.38
2023-03-15T20:19:06.667Z,97199.53
2023-03-15T20:21:33.759Z,97198.50
2023-03-15T20:24:00.586Z,97198.50
2023-03-15T20:26:31.191Z,97200.53
2023-03-15T20:28:57.620Z,97204.91
2023-03-15T20:31:26.142Z,97216.91
2023-03-15T20:33:52.850Z,97218.38
2023-03-15T20:36:19.674Z,97216.13
2023-03-15T20:38:48.219Z,97225.66
2023-03-15T20:41:14.893Z,97230.72
2023-03-15T20:43:41.922Z,97234.16
2023-03-15T20:46:22.462Z,97239.13
2023-03-15T20:48:50.120Z,97242.44
2023-03-15T20:51:16.563Z,97241.63
2023-03-15T20:53:43.085Z,97251.66
2023-03-15T20:56:11.576Z,97259.94
2023-03-15T20:58:38.182Z,97258.59
2023-03-15T21:01:16.689Z,97256.50
2023-03-15T21:03:45.216Z,97255.91
2023-03-15T21:06:12.207Z,97261.25
2023-03-15T21:08:39.159Z,97268.22
2023-03-15T21:11:06.729Z,97271.00
2023-03-15T21:13:37.470Z,97263.97
2023-03-15T21:16:05.221Z,97262.72
2023-03-15T21:18:35.954Z,97257.78
2023-03-15T21:21:06.388Z,97273.81
2023-03-15T21:23:33.538Z,97277.44
2023-03-15T21:26:05.267Z,97280.44
2023-03-15T21:28:32.234Z,97275.38
2023-03-15T21:30:59.457Z,97269.78
2023-03-15T21:33:27.975Z,97273.69
2023-03-15T21:35:55.776Z,97271.63
2023-03-15T21:38:22.419Z,97275.78
2023-03-15T21:40:52.553Z,97278.66
2023-03-15T21:43:21.013Z,97274.22
2023-03-15T21:46:09.317Z,97265.63
2023-03-15T21:48:38.045Z,97268.63
2023-03-15T21:51:11.181Z,97265.63
2023-03-15T21:53:38.685Z,97268.94
2023-03-15T21:56:05.428Z,97265.50
2023-03-15T21:58:32.728Z,97279.38
2023-03-15T22:01:06.299Z,97274.63
2023-03-15T22:03:35.330Z,97276.59
2023-03-15T22:06:02.591Z,97283.75
2023-03-15T22:08:29.162Z,97284.25
2023-03-15T22:10:57.444Z,97284.34
2023-03-15T22:13:24.840Z,97288.19
2023-03-15T22:15:52.359Z,97287.31
2023-03-15T22:18:19.493Z,97286.19
2023-03-15T22:21:00.868Z,97282.16
2023-03-15T22:23:29.500Z,97284.13
2023-03-15T22:25:57.199Z,97284.97
2023-03-15T22:28:25.201Z,97283.41
2023-03-15T22:30:53.874Z,97275.50
2023-03-15T22:33:24.623Z,97285.84
2023-03-15T22:35:56.206Z,97290.78
2023-03-15T22:38:24.393Z,97289.34
2023-03-15T22:41:08.600Z,97277.38
2023-03-15T22:43:43.299Z,97283.81
2023-03-15T22:46:15.768Z,97277.50
2023-03-15T22:48:42.639Z,97278.34
2023-03-15T22:51:11.321Z,97282.16
2023-03-15T22:53:37.848Z,97278.22
2023-03-15T22:56:04.970Z,97285.44
2023-03-15T22:58:31.753Z,97284.59
2023-03-15T23:00:58.217Z,97282.81
2023-03-15T23:03:27.696Z,97285.38
2023-03-15T23:05:55.524Z,97284.34
2023-03-15T23:08:27.287Z,97279.72
2023-03-15T23:10:56.971Z,97283.66
2023-03-15T23:13:23.443Z,97291.09
2023-03-15T23:15:54.345Z,97294.03
2023-03-15T23:18:22.046Z,97297.47
2023-03-15T23:20:49.647Z,97298.16
2023-03-15T23:23:16.171Z,97297.94
2023-03-15T23:25:43.225Z,97290.16
2023-03-15T23:28:09.699Z,97295.16
2023-03-15T23:30:40.002Z,97295.59
2023-03-15T23:33:08.942Z,97305.03
2023-03-15T23:35:35.825Z,97303.41
2023-03-15T23:38:02.446Z,97311.06
2023-03-15T23:40:30.134Z,97315.31
2023-03-15T23:42:59.327Z,97312.16
2023-03-15T23:45:29.426Z,97306.00
2023-03-15T23:47:56.783Z,97306.81
2023-03-15T23:50:27.429Z,97313.19
2023-03-15T23:52:56.111Z,97312.91
2023-03-15T23:55:24.061Z,97320.97
2023-03-15T23:57:50.862Z,97314.13
